Stillwater, New Jersey
Current Conditions -  °F | °C
As of 5:53 AM on Monday 22 Dec 2014 (Local Time) from KFWN Reporting Station
Haze Haze  
Wind Chill: 22°   Ceiling: 800
Heat Index: 30°   Visibility: 5mi
Dew Point: 27°   Wind: 9mph
Humidity: 88%   Direction: 30°NNE
Pressure: 30.3"   Gusts: NA
Location:  41.04°N, 74.88°W
Report Text: KFWN 221053Z AUTO 03008KT 5SM BR OVC008 M01/M03 A3030 RMK AO2 SLP264 T10111028
Loading
Personal Weather Stations






























Interactive Weather Map New forecast layout! Learn more

10-Day Weather Forecast

Advertisements
Track Severe Weather on mobile